Time;durP1;ratioP1;P1;durP2;ratioP2;P2;SDS_P1;SDS_P2;PMS_P1;PMS_P2;Temp;Humidity;BMP_temperature;BMP_pressure;BME280_temperature;BME280_humidity;BME280_pressure;Samples;Min_cycle;Max_cycle;Signal;HPM_P1;HPM_P2
2023/09/25 00:01:02;;;;;;;5.28;2.05;;;14.10;99.90;;;;;;5062955;28;20454;-82
2023/09/25 00:03:28;;;;;;;4.22;1.90;;;14.20;99.90;;;;;;5096196;28;20040;-82
2023/09/25 00:05:56;;;;;;;3.42;1.90;;;14.20;99.90;;;;;;5094565;28;20052;-82
2023/09/25 00:08:22;;;;;;;3.35;2.00;;;14.20;99.90;;;;;;5062423;28;20146;-82
2023/09/25 00:10:48;;;;;;;4.03;1.90;;;14.30;99.90;;;;;;5095470;28;20160;-82
2023/09/25 00:13:14;;;;;;;4.25;1.90;;;14.30;99.90;;;;;;5078713;28;20478;-82
2023/09/25 00:15:44;;;;;;;5.28;1.83;;;14.30;99.90;;;;;;5095211;28;20088;-83
2023/09/25 00:18:11;;;;;;;3.40;1.60;;;14.30;99.90;;;;;;5096411;28;20048;-81
2023/09/25 00:20:37;;;;;;;5.78;2.05;;;14.30;99.90;;;;;;5079169;28;20050;-81
2023/09/25 00:23:03;;;;;;;3.90;2.17;;;14.40;99.90;;;;;;5062303;28;20408;-81
2023/09/25 00:25:29;;;;;;;5.15;2.00;;;14.40;99.90;;;;;;5061834;28;20062;-82
2023/09/25 00:27:55;;;;;;;4.03;1.83;;;14.40;99.90;;;;;;5095041;28;20059;-82
2023/09/25 00:30:20;;;;;;;4.35;1.90;;;14.40;99.90;;;;;;5077912;28;20076;-80
2023/09/25 00:32:46;;;;;;;5.22;1.85;;;14.50;99.90;;;;;;5077688;28;20074;-82
2023/09/25 00:35:12;;;;;;;4.30;1.83;;;14.40;99.90;;;;;;5095823;28;20096;-83
2023/09/25 00:37:39;;;;;;;5.75;1.95;;;14.40;99.90;;;;;;5061616;28;20052;-80
2023/09/25 00:40:19;;;;;;;4.63;2.05;;;14.40;99.90;;;;;;5095919;28;20048;-82
2023/09/25 00:42:56;;;;;;;5.55;1.75;;;14.40;99.90;;;;;;5062900;28;20182;-82
2023/09/25 00:45:22;;;;;;;5.03;2.10;;;14.40;99.90;;;;;;5078335;28;20044;-81
2023/09/25 00:47:50;;;;;;;4.82;2.10;;;14.50;99.90;;;;;;5060810;28;20490;-81
2023/09/25 00:50:18;;;;;;;4.50;2.10;;;14.40;99.90;;;;;;5094987;28;20513;-81
2023/09/25 00:52:46;;;;;;;4.97;2.53;;;14.40;99.90;;;;;;5078321;28;20059;-81
2023/09/25 00:55:16;;;;;;;5.38;2.10;;;14.40;99.90;;;;;;5078359;28;20055;-82
2023/09/25 00:57:47;;;;;;;4.55;2.13;;;14.40;99.90;;;;;;5077586;28;20039;-81
2023/09/25 01:00:13;;;;;;;4.43;2.30;;;14.30;99.90;;;;;;5095245;28;20048;-82
2023/09/25 01:02:39;;;;;;;5.25;2.50;;;14.30;99.90;;;;;;5077648;28;20485;-80
2023/09/25 01:05:10;;;;;;;4.78;2.35;;;14.30;99.90;;;;;;5077894;28;20052;-81
2023/09/25 01:07:39;;;;;;;4.70;2.05;;;14.20;99.90;;;;;;5077897;28;20047;-82
2023/09/25 01:10:19;;;;;;;3.15;2.20;;;14.20;99.90;;;;;;5077158;28;20146;-81
2023/09/25 01:12:47;;;;;;;3.33;2.05;;;14.20;99.90;;;;;;5093458;28;20121;-80
2023/09/25 01:15:16;;;;;;;5.90;2.33;;;14.20;99.90;;;;;;5077265;28;20080;-81
2023/09/25 01:17:43;;;;;;;3.92;1.90;;;14.10;99.90;;;;;;5094257;28;20506;-79
2023/09/25 01:20:19;;;;;;;4.47;2.40;;;14.10;99.90;;;;;;5077599;28;20071;-81
2023/09/25 01:22:49;;;;;;;7.13;2.28;;;14.10;99.90;;;;;;5077173;28;20044;-81
2023/09/25 01:25:16;;;;;;;4.03;2.28;;;14.10;99.90;;;;;;5076755;28;20060;-82
2023/09/25 01:27:43;;;;;;;6.57;2.30;;;14.10;99.90;;;;;;5077100;28;20052;-82
2023/09/25 01:30:09;;;;;;;3.95;2.20;;;14.00;99.90;;;;;;5060872;28;20141;-81
2023/09/25 01:32:37;;;;;;;6.78;2.22;;;14.00;99.90;;;;;;5094914;28;20055;-81
2023/09/25 01:35:08;;;;;;;5.45;2.60;;;14.10;99.90;;;;;;5060742;28;20052;-81
2023/09/25 01:37:34;;;;;;;4.72;2.28;;;14.10;99.90;;;;;;5077709;28;20048;-82
2023/09/25 01:40:00;;;;;;;4.40;2.50;;;14.10;99.90;;;;;;5076977;28;20121;-80
2023/09/25 01:42:26;;;;;;;3.95;2.40;;;14.10;99.90;;;;;;5060844;28;20052;-82
2023/09/25 01:44:51;;;;;;;4.13;2.33;;;14.00;99.90;;;;;;5093383;28;20055;-80
2023/09/25 01:47:17;;;;;;;6.22;2.60;;;14.00;99.90;;;;;;5060121;28;20489;-81
2023/09/25 01:49:43;;;;;;;5.95;2.53;;;14.00;99.90;;;;;;5060214;28;20044;-82
2023/09/25 01:52:09;;;;;;;5.65;2.60;;;14.00;99.90;;;;;;5060400;28;20051;-81
2023/09/25 01:54:35;;;;;;;5.43;2.28;;;14.00;99.90;;;;;;5076934;28;20056;-82
2023/09/25 01:57:02;;;;;;;6.53;2.45;;;13.90;99.90;;;;;;5093536;28;20496;-81
2023/09/25 01:59:27;;;;;;;3.90;2.33;;;13.90;99.90;;;;;;5077671;28;20485;-82
2023/09/25 02:01:53;;;;;;;5.20;2.60;;;13.90;99.90;;;;;;5076676;28;20071;-81
2023/09/25 02:04:19;;;;;;;5.55;2.38;;;13.90;99.90;;;;;;5060438;28;20381;-81
2023/09/25 02:06:45;;;;;;;6.35;2.45;;;13.80;99.90;;;;;;5094980;28;20098;-82
2023/09/25 02:09:11;;;;;;;6.88;2.53;;;13.80;99.90;;;;;;5093224;28;20050;-82
2023/09/25 02:11:37;;;;;;;3.78;2.10;;;13.80;99.90;;;;;;5076286;28;20131;-81
2023/09/25 02:14:02;;;;;;;6.32;2.70;;;13.80;99.90;;;;;;5076624;28;20059;-81
2023/09/25 02:16:29;;;;;;;3.30;2.42;;;13.80;99.90;;;;;;5076903;28;20044;-81
2023/09/25 02:18:55;;;;;;;4.10;2.22;;;13.80;99.90;;;;;;5059938;28;20048;-80
2023/09/25 02:21:20;;;;;;;4.10;2.22;;;13.70;99.90;;;;;;5093534;28;20396;-81
2023/09/25 02:23:46;;;;;;;5.28;2.40;;;13.70;99.90;;;;;;5076779;28;20048;-82
2023/09/25 02:26:12;;;;;;;5.82;2.40;;;13.70;99.90;;;;;;5093056;28;20052;-81
2023/09/25 02:28:38;;;;;;;6.18;2.72;;;13.70;99.90;;;;;;5059736;28;20048;-81
2023/09/25 02:31:04;;;;;;;4.70;2.00;;;13.70;99.90;;;;;;5075172;28;20040;-83
2023/09/25 02:33:30;;;;;;;3.13;2.20;;;13.70;99.90;;;;;;5059726;28;20062;-82
2023/09/25 02:36:11;;;;;;;5.03;2.60;;;13.70;99.90;;;;;;5042669;28;20047;-81
2023/09/25 02:38:37;;;;;;;6.55;2.47;;;13.70;99.90;;;;;;5093190;28;20047;-81
2023/09/25 02:41:02;;;;;;;5.43;2.55;;;13.70;99.90;;;;;;5075389;28;20055;-81
2023/09/25 02:43:28;;;;;;;3.92;2.20;;;13.70;99.90;;;;;;5092666;28;20081;-82
2023/09/25 02:45:54;;;;;;;6.35;2.65;;;13.70;99.90;;;;;;5076143;28;20047;-80
2023/09/25 02:48:21;;;;;;;5.05;2.45;;;13.70;99.90;;;;;;5092175;28;20150;-80
2023/09/25 02:50:49;;;;;;;6.20;2.70;;;13.60;99.90;;;;;;5092607;28;20524;-81
2023/09/25 02:53:15;;;;;;;5.97;2.38;;;13.60;99.90;;;;;;5092352;28;20052;-82
2023/09/25 02:55:47;;;;;;;6.40;2.75;;;13.60;99.90;;;;;;5076279;28;20134;-81
2023/09/25 02:58:12;;;;;;;4.90;2.40;;;13.60;99.90;;;;;;5091896;28;20052;-82
2023/09/25 03:00:38;;;;;;;5.03;2.65;;;13.60;99.90;;;;;;5042124;28;20101;-80
2023/09/25 03:03:04;;;;;;;3.92;2.40;;;13.50;99.90;;;;;;5091888;28;20051;-81
2023/09/25 03:05:30;;;;;;;5.60;2.45;;;13.40;99.90;;;;;;5093215;28;20143;-81
2023/09/25 03:07:56;;;;;;;5.80;2.80;;;13.50;99.90;;;;;;5075836;28;20040;-80
2023/09/25 03:10:22;;;;;;;7.07;2.92;;;13.50;99.90;;;;;;5092074;28;20201;-81
2023/09/25 03:12:47;;;;;;;4.70;2.78;;;13.40;99.90;;;;;;5075418;28;20048;-80
2023/09/25 03:15:13;;;;;;;4.47;2.53;;;13.40;99.90;;;;;;5092215;28;20051;-83
2023/09/25 03:17:39;;;;;;;4.82;2.28;;;13.40;99.90;;;;;;5058791;28;20207;-83
2023/09/25 03:20:12;;;;;;;5.07;2.75;;;13.30;99.90;;;;;;5075077;28;20044;-81
2023/09/25 03:22:38;;;;;;;5.80;2.58;;;13.30;99.90;;;;;;5074860;28;20105;-82
2023/09/25 03:25:05;;;;;;;6.15;2.80;;;13.30;99.90;;;;;;5091083;28;20059;-81
2023/09/25 03:27:31;;;;;;;5.15;2.70;;;13.30;99.90;;;;;;5092165;28;20048;-81
2023/09/25 03:29:56;;;;;;;6.32;2.55;;;13.20;99.90;;;;;;5075626;28;20475;-82
2023/09/25 03:32:22;;;;;;;3.85;2.47;;;13.30;99.90;;;;;;5075527;28;20084;-82
2023/09/25 03:34:48;;;;;;;6.13;3.17;;;13.20;99.90;;;;;;5092707;28;20078;-82
2023/09/25 03:37:13;;;;;;;4.00;2.55;;;13.20;99.90;;;;;;5095217;28;20482;-81
2023/09/25 03:39:39;;;;;;;6.90;2.85;;;13.20;99.90;;;;;;5062624;28;20083;-82
2023/09/25 03:42:05;;;;;;;5.70;3.10;;;13.20;99.90;;;;;;5095618;28;20131;-79
2023/09/25 03:44:31;;;;;;;3.72;2.53;;;13.10;99.90;;;;;;5079253;28;20056;-81
2023/09/25 03:46:57;;;;;;;3.45;2.30;;;13.10;99.90;;;;;;5079608;28;20048;-81
2023/09/25 03:49:22;;;;;;;3.85;2.38;;;13.10;99.90;;;;;;5095125;28;20383;-81
2023/09/25 03:51:48;;;;;;;4.85;2.63;;;13.10;99.90;;;;;;5078932;28;20066;-80
2023/09/25 03:54:14;;;;;;;4.97;2.95;;;13.10;99.90;;;;;;5096186;28;20048;-80
2023/09/25 03:56:39;;;;;;;4.70;2.83;;;13.10;99.90;;;;;;5062633;28;20048;-81
2023/09/25 03:59:06;;;;;;;5.60;2.90;;;13.10;99.90;;;;;;5079067;28;20048;-79
2023/09/25 04:01:31;;;;;;;3.72;2.53;;;13.10;99.90;;;;;;5078977;28;20129;-81
2023/09/25 04:03:57;;;;;;;6.43;3.05;;;12.80;99.90;;;;;;5095647;28;20040;-81
2023/09/25 04:06:23;;;;;;;7.22;3.08;;;13.00;99.90;;;;;;5079049;28;20066;-80
2023/09/25 04:08:49;;;;;;;5.35;2.30;;;13.00;99.90;;;;;;5095873;28;20051;-80
2023/09/25 04:11:14;;;;;;;5.13;2.75;;;13.00;99.90;;;;;;5077625;28;20043;-81
2023/09/25 04:13:40;;;;;;;4.45;2.70;;;13.10;99.90;;;;;;5079070;28;20048;-81
2023/09/25 04:16:06;;;;;;;5.63;3.58;;;13.10;99.90;;;;;;5096304;28;20512;-82
2023/09/25 04:18:32;;;;;;;5.68;2.90;;;13.10;99.90;;;;;;5062643;28;20137;-80
2023/09/25 04:21:07;;;;;;;4.03;2.55;;;13.10;99.90;;;;;;5094912;28;20204;-81
2023/09/25 04:23:33;;;;;;;3.50;2.50;;;13.00;99.90;;;;;;5097714;28;20044;-82
2023/09/25 04:26:00;;;;;;;4.43;2.42;;;13.10;99.90;;;;;;5098766;28;20146;-80
2023/09/25 04:28:29;;;;;;;4.25;2.60;;;13.10;99.90;;;;;;5081494;28;20054;-81
2023/09/25 04:30:59;;;;;;;7.22;2.85;;;13.10;99.90;;;;;;5098162;28;20070;-82
2023/09/25 04:33:26;;;;;;;4.28;2.80;;;13.10;99.90;;;;;;5097815;28;20105;-82
2023/09/25 04:35:58;;;;;;;4.85;2.95;;;13.00;99.90;;;;;;5099229;28;20521;-81
2023/09/25 04:38:25;;;;;;;3.80;2.60;;;13.10;99.90;;;;;;5082267;28;20055;-82
2023/09/25 04:40:51;;;;;;;4.57;2.60;;;13.10;99.90;;;;;;5049056;28;20051;-83
2023/09/25 04:43:17;;;;;;;9.23;3.33;;;13.10;99.90;;;;;;5098870;28;20040;-80
2023/09/25 04:45:46;;;;;;;5.97;2.83;;;13.10;99.90;;;;;;5066733;28;20428;-81
2023/09/25 04:48:13;;;;;;;6.75;2.90;;;13.00;99.90;;;;;;5098581;28;20092;-82
2023/09/25 04:50:40;;;;;;;5.65;3.00;;;13.10;99.90;;;;;;5098321;28;20118;-82
2023/09/25 04:53:08;;;;;;;5.72;3.00;;;13.10;99.90;;;;;;5098760;28;20095;-81
2023/09/25 04:55:36;;;;;;;3.33;2.45;;;13.10;99.90;;;;;;5064836;28;20186;-81
2023/09/25 04:58:02;;;;;;;4.95;2.85;;;13.10;99.90;;;;;;5065424;28;20396;-81
2023/09/25 05:00:28;;;;;;;5.40;3.40;;;13.10;99.90;;;;;;5080985;28;20040;-81
2023/09/25 05:02:55;;;;;;;5.13;2.90;;;13.10;99.90;;;;;;5080924;28;20089;-81
2023/09/25 05:05:22;;;;;;;4.32;2.83;;;13.00;99.90;;;;;;5097393;28;20052;-81
2023/09/25 05:07:50;;;;;;;6.43;3.20;;;13.00;99.90;;;;;;5080465;28;20090;-80
2023/09/25 05:10:26;;;;;;;6.15;2.90;;;13.00;99.90;;;;;;5097202;28;20051;-81
2023/09/25 05:12:53;;;;;;;5.20;2.53;;;13.00;99.90;;;;;;5097328;28;20055;-81
2023/09/25 05:15:20;;;;;;;8.05;3.13;;;13.00;99.90;;;;;;5097477;28;20051;-80
2023/09/25 05:17:46;;;;;;;5.82;3.45;;;13.00;99.90;;;;;;5097834;28;20090;-81
2023/09/25 05:20:18;;;;;;;4.97;3.08;;;13.00;99.90;;;;;;5081138;28;20048;-83
2023/09/25 05:22:49;;;;;;;6.78;3.35;;;12.90;99.90;;;;;;5097850;28;20434;-82
2023/09/25 05:25:16;;;;;;;4.90;2.83;;;13.00;99.90;;;;;;5097178;28;20510;-82
2023/09/25 05:27:46;;;;;;;4.85;2.55;;;13.00;99.90;;;;;;5097176;28;20055;-82
2023/09/25 05:30:12;;;;;;;4.47;3.00;;;13.00;99.90;;;;;;5097452;28;20108;-82
2023/09/25 05:32:44;;;;;;;4.90;3.08;;;12.90;99.90;;;;;;5096622;28;20052;-81
2023/09/25 05:35:10;;;;;;;5.93;2.75;;;12.90;99.90;;;;;;5080132;28;20046;-82
2023/09/25 05:37:37;;;;;;;4.13;2.75;;;12.90;99.90;;;;;;5063299;28;20047;-80
2023/09/25 05:40:05;;;;;;;6.43;2.80;;;12.90;99.90;;;;;;5099285;28;20077;-81
2023/09/25 05:42:31;;;;;;;6.13;3.13;;;12.90;99.90;;;;;;5095673;28;20082;-81
2023/09/25 05:44:57;;;;;;;5.72;3.35;;;12.90;99.90;;;;;;5079951;28;20058;-82
2023/09/25 05:47:23;;;;;;;4.00;2.90;;;12.90;99.90;;;;;;5079759;28;20100;-79
2023/09/25 05:49:49;;;;;;;4.43;3.03;;;12.90;99.90;;;;;;5080466;28;20075;-81
2023/09/25 05:52:15;;;;;;;5.75;2.55;;;12.90;99.90;;;;;;5097347;28;20083;-81
2023/09/25 05:54:41;;;;;;;6.28;3.00;;;12.90;99.90;;;;;;5097124;28;20049;-80
2023/09/25 05:57:08;;;;;;;5.43;3.33;;;13.00;99.90;;;;;;5080713;28;20051;-81
2023/09/25 05:59:34;;;;;;;5.13;3.03;;;13.00;99.90;;;;;;5096306;28;20447;-81
2023/09/25 06:02:01;;;;;;;3.88;2.75;;;13.00;99.90;;;;;;5080162;28;20082;-81
2023/09/25 06:04:27;;;;;;;5.90;3.10;;;13.00;99.90;;;;;;5095318;28;20051;-80
2023/09/25 06:06:53;;;;;;;7.80;3.13;;;13.00;99.90;;;;;;5079549;28;20047;-81
2023/09/25 06:09:19;;;;;;;5.95;2.80;;;13.00;99.90;;;;;;5063470;28;20047;-80
2023/09/25 06:11:45;;;;;;;7.82;2.70;;;13.00;99.90;;;;;;5079114;28;20526;-81
2023/09/25 06:14:11;;;;;;;5.75;2.30;;;13.10;99.90;;;;;;5079263;28;20104;-81
2023/09/25 06:16:36;;;;;;;7.90;2.80;;;13.10;99.90;;;;;;5096674;28;20055;-81
2023/09/25 06:19:03;;;;;;;6.78;2.58;;;13.20;99.90;;;;;;5097487;28;20098;-81
2023/09/25 06:21:30;;;;;;;5.72;2.80;;;13.20;99.90;;;;;;5063696;28;20043;-79
2023/09/25 06:23:56;;;;;;;6.00;2.88;;;13.30;99.90;;;;;;5063207;28;20505;-81
2023/09/25 06:26:27;;;;;;;6.40;3.25;;;13.30;99.90;;;;;;5096416;28;20454;-81
2023/09/25 06:28:53;;;;;;;6.03;3.50;;;13.30;99.90;;;;;;5079077;28;20055;-78
2023/09/25 06:31:19;;;;;;;7.25;2.95;;;13.40;99.90;;;;;;5096453;28;20042;-81
2023/09/25 06:33:45;;;;;;;8.50;2.92;;;13.40;99.90;;;;;;5096167;28;20040;-78
2023/09/25 06:36:11;;;;;;;4.03;2.85;;;13.40;99.90;;;;;;5062727;28;20036;-83
2023/09/25 06:38:37;;;;;;;5.43;2.75;;;13.50;99.90;;;;;;5079897;28;20047;-84
2023/09/25 06:41:03;;;;;;;8.15;3.10;;;13.50;99.90;;;;;;5062772;28;20036;-83
2023/09/25 06:43:28;;;;;;;5.60;2.58;;;13.50;99.90;;;;;;5080508;28;20044;-83
2023/09/25 06:45:54;;;;;;;6.50;2.80;;;13.60;99.90;;;;;;5062324;28;20083;-79
2023/09/25 06:48:19;;;;;;;4.18;2.20;;;13.60;99.90;;;;;;5096152;28;20040;-80
2023/09/25 06:50:45;;;;;;;6.05;2.92;;;13.60;99.90;;;;;;5095017;28;20423;-78
2023/09/25 06:53:12;;;;;;;4.97;2.78;;;13.60;99.90;;;;;;5078940;28;20067;-79
2023/09/25 06:55:39;;;;;;;4.82;2.50;;;13.70;99.90;;;;;;5064424;28;20502;-80
2023/09/25 06:58:05;;;;;;;6.70;2.80;;;13.60;99.90;;;;;;5095918;28;20484;-80
2023/09/25 07:00:31;;;;;;;3.83;2.47;;;13.60;99.90;;;;;;5079705;28;20097;-80
2023/09/25 07:02:57;;;;;;;3.58;2.47;;;13.70;99.90;;;;;;5098375;28;20082;-80
2023/09/25 07:05:22;;;;;;;6.25;2.80;;;13.70;99.90;;;;;;5079732;28;20100;-79
2023/09/25 07:07:50;;;;;;;6.97;3.05;;;13.70;99.90;;;;;;5061921;28;20039;-78
2023/09/25 07:10:16;;;;;;;6.53;2.92;;;13.80;99.90;;;;;;5096127;28;20043;-79
2023/09/25 07:12:42;;;;;;;5.10;2.50;;;13.80;99.90;;;;;;5082658;28;20101;-80
2023/09/25 07:15:08;;;;;;;4.30;2.63;;;13.80;99.90;;;;;;5099172;28;20135;-80
2023/09/25 07:17:34;;;;;;;5.43;2.83;;;13.80;99.90;;;;;;5100234;28;20082;-77
2023/09/25 07:20:00;;;;;;;5.75;2.50;;;13.90;99.90;;;;;;5082606;28;20401;-79
2023/09/25 07:22:27;;;;;;;7.05;2.40;;;14.00;99.90;;;;;;5082949;28;20497;-76
2023/09/25 07:24:54;;;;;;;5.85;2.67;;;14.00;99.90;;;;;;5098328;28;20511;-75
2023/09/25 07:27:20;;;;;;;4.15;2.60;;;14.10;99.90;;;;;;5083335;28;20055;-82
2023/09/25 07:29:47;;;;;;;4.25;2.20;;;14.20;99.90;;;;;;5082648;28;20197;-80
2023/09/25 07:32:14;;;;;;;5.63;2.50;;;14.20;99.90;;;;;;5082532;28;20044;-82
2023/09/25 07:34:40;;;;;;;6.00;2.08;;;14.30;99.90;;;;;;5098935;28;20408;-78
2023/09/25 07:37:07;;;;;;;5.80;2.58;;;14.30;99.90;;;;;;5065333;28;20140;-80
2023/09/25 07:39:34;;;;;;;6.07;2.92;;;14.40;99.90;;;;;;5065997;28;20052;-80
2023/09/25 07:42:01;;;;;;;6.75;2.50;;;14.60;99.90;;;;;;5098769;28;20046;-80
2023/09/25 07:44:27;;;;;;;6.00;2.65;;;14.70;99.90;;;;;;5099662;28;20163;-80
2023/09/25 07:46:53;;;;;;;6.97;2.90;;;14.90;99.90;;;;;;5099079;28;20514;-81
2023/09/25 07:49:23;;;;;;;4.00;2.38;;;15.20;99.90;;;;;;5065053;28;20047;-78
2023/09/25 07:51:51;;;;;;;3.95;2.50;;;15.40;99.90;;;;;;5098907;28;20043;-83
2023/09/25 07:54:17;;;;;;;6.32;2.75;;;15.60;99.90;;;;;;5100927;28;20046;-84
2023/09/25 07:56:43;;;;;;;6.63;2.30;;;15.80;99.90;;;;;;5083550;28;20044;-78
2023/09/25 07:59:10;;;;;;;3.78;2.20;;;16.00;99.90;;;;;;5082396;28;20090;-78
2023/09/25 08:01:39;;;;;;;7.25;2.60;;;16.20;99.90;;;;;;5082724;28;20055;-79
2023/09/25 08:04:05;;;;;;;4.97;2.63;;;16.20;99.90;;;;;;5098597;28;20052;-77
2023/09/25 08:06:31;;;;;;;6.13;2.63;;;16.30;99.90;;;;;;5099515;28;20225;-79
2023/09/25 08:08:57;;;;;;;4.03;2.08;;;16.20;99.90;;;;;;5098975;28;20043;-79
2023/09/25 08:11:24;;;;;;;5.20;2.63;;;16.20;99.90;;;;;;5082331;28;20488;-79
2023/09/25 08:13:50;;;;;;;4.47;2.65;;;16.10;99.90;;;;;;5082006;28;20050;-79
2023/09/25 08:16:22;;;;;;;5.20;2.47;;;16.00;99.90;;;;;;5082176;28;20063;-79
2023/09/25 08:18:48;;;;;;;5.97;2.60;;;16.10;99.90;;;;;;5098922;28;20051;-79
2023/09/25 08:21:14;;;;;;;4.90;2.17;;;16.10;99.90;;;;;;5098986;28;20148;-80
2023/09/25 08:23:40;;;;;;;6.80;2.38;;;16.20;99.90;;;;;;5080512;28;20090;-77
2023/09/25 08:26:06;;;;;;;5.50;2.50;;;16.20;99.90;;;;;;5115811;28;20114;-76
2023/09/25 08:28:32;;;;;;;5.38;2.45;;;16.30;99.90;;;;;;5080340;28;20035;-75
2023/09/25 08:30:58;;;;;;;6.72;2.60;;;16.40;99.90;;;;;;5080107;28;20071;-76
2023/09/25 08:33:24;;;;;;;5.57;2.25;;;16.50;99.90;;;;;;5064038;28;20051;-77
2023/09/25 08:35:51;;;;;;;6.13;2.63;;;16.50;99.90;;;;;;5081134;28;20051;-80
2023/09/25 08:38:16;;;;;;;5.75;2.45;;;16.60;99.90;;;;;;5080973;28;20039;-80
2023/09/25 08:40:47;;;;;;;6.93;3.00;;;16.70;99.90;;;;;;5081228;28;20047;-81
2023/09/25 08:43:13;;;;;;;5.32;2.35;;;16.90;99.90;;;;;;5098109;28;20519;-83
2023/09/25 08:45:41;;;;;;;4.38;2.35;;;17.10;99.90;;;;;;5082422;28;20058;-83
2023/09/25 08:48:11;;;;;;;4.90;2.60;;;17.40;99.90;;;;;;5097995;28;20043;-82
2023/09/25 08:50:39;;;;;;;5.20;2.35;;;17.80;99.90;;;;;;5064127;28;20465;-81
2023/09/25 08:53:06;;;;;;;5.32;2.30;;;18.30;99.90;;;;;;5098549;28;20036;-79
2023/09/25 08:55:35;;;;;;;4.82;2.38;;;18.70;99.90;;;;;;5098544;28;20488;-80
2023/09/25 08:58:01;;;;;;;5.65;2.85;;;18.90;99.90;;;;;;5065252;28;20122;-79
2023/09/25 09:00:29;;;;;;;6.68;2.17;;;19.00;99.90;;;;;;5098498;28;20048;-79
2023/09/25 09:02:55;;;;;;;4.32;2.47;;;19.10;99.90;;;;;;5080785;28;20053;-80
2023/09/25 09:05:21;;;;;;;3.65;1.92;;;19.20;99.90;;;;;;5081611;28;20103;-80
2023/09/25 09:08:16;;;;;;;7.40;2.40;;;19.30;99.90;;;;;;5063647;28;20539;-80
2023/09/25 09:10:43;;;;;;;6.40;2.40;;;19.30;99.90;;;;;;5075664;28;20088;-76
2023/09/25 09:13:10;;;;;;;4.28;2.30;;;19.20;99.90;;;;;;5095922;28;20112;-79
2023/09/25 09:15:37;;;;;;;4.40;2.30;;;19.00;99.90;;;;;;5097207;28;20078;-77
2023/09/25 09:18:37;;;;;;;6.22;2.85;;;18.90;99.90;;;;;;5079365;28;20154;-79
2023/09/25 09:21:03;;;;;;;4.90;2.17;;;18.90;99.90;;;;;;5036747;28;20055;-77
2023/09/25 09:23:40;;;;;;;7.40;2.20;;;18.90;99.90;;;;;;5096581;28;20134;-78
2023/09/25 09:26:07;;;;;;;4.80;2.42;;;18.80;99.90;;;;;;5096854;28;20089;-79
2023/09/25 09:28:33;;;;;;;4.43;2.40;;;18.80;99.90;;;;;;5097273;28;20392;-79
2023/09/25 09:31:02;;;;;;;5.57;2.55;;;18.80;99.90;;;;;;5063102;28;20043;-79
2023/09/25 09:33:30;;;;;;;8.95;2.60;;;18.70;99.90;;;;;;5079616;28;20054;-79
2023/09/25 09:35:56;;;;;;;7.68;2.50;;;18.80;99.90;;;;;;5096443;28;20419;-77
2023/09/25 09:38:22;;;;;;;5.38;2.22;;;18.80;99.90;;;;;;5079601;28;20047;-78
2023/09/25 09:40:51;;;;;;;5.22;2.45;;;18.80;99.90;;;;;;5096441;28;20051;-79
2023/09/25 09:43:17;;;;;;;4.80;2.13;;;18.80;99.90;;;;;;5096096;28;20039;-82
2023/09/25 09:45:48;;;;;;;4.43;2.22;;;18.80;99.90;;;;;;5097532;28;20048;-82
2023/09/25 09:48:19;;;;;;;6.05;2.47;;;18.80;99.90;;;;;;5099994;28;20047;-83
2023/09/25 09:50:49;;;;;;;5.28;2.25;;;18.90;99.90;;;;;;5080369;28;20039;-74
2023/09/25 09:53:17;;;;;;;4.13;2.30;;;18.90;99.90;;;;;;5114483;28;20047;-75
2023/09/25 09:55:44;;;;;;;5.40;2.28;;;19.00;99.90;;;;;;5115036;28;20104;-75
2023/09/25 09:58:11;;;;;;;5.90;2.80;;;19.00;99.90;;;;;;5113993;28;20051;-77
2023/09/25 10:00:41;;;;;;;6.57;2.70;;;19.10;99.90;;;;;;5096664;28;20130;-73
2023/09/25 10:03:08;;;;;;;3.78;2.15;;;19.20;99.90;;;;;;5095005;28;20073;-71
2023/09/25 10:05:48;;;;;;;4.07;2.53;;;19.20;99.90;;;;;;5113465;28;20111;-72
2023/09/25 10:08:16;;;;;;;4.75;2.47;;;19.20;99.90;;;;;;5094648;28;20040;-71
2023/09/25 10:10:46;;;;;;;5.10;2.45;;;19.20;99.90;;;;;;5095203;28;20493;-71
2023/09/25 10:13:25;;;;;;;7.22;2.78;;;19.20;99.90;;;;;;5094497;28;20104;-72
2023/09/25 10:16:01;;;;;;;4.95;2.47;;;19.20;99.90;;;;;;5094911;28;20120;-71
2023/09/25 10:18:28;;;;;;;7.10;2.50;;;19.30;99.90;;;;;;5093930;28;20127;-72
2023/09/25 10:21:08;;;;;;;5.95;2.40;;;19.30;99.90;;;;;;5112841;28;20052;-71
2023/09/25 10:23:35;;;;;;;7.63;2.25;;;19.40;99.90;;;;;;5077711;28;20124;-72
2023/09/25 10:26:04;;;;;;;4.88;2.40;;;19.50;99.90;;;;;;5094916;28;20126;-72
2023/09/25 10:28:33;;;;;;;5.30;2.33;;;19.50;99.90;;;;;;5112791;28;20058;-71
2023/09/25 10:31:00;;;;;;;5.88;2.47;;;19.50;99.90;;;;;;5112677;28;20481;-71
2023/09/25 10:33:32;;;;;;;5.40;2.10;;;19.50;99.90;;;;;;5077417;28;20341;-71
2023/09/25 10:36:01;;;;;;;4.30;2.30;;;19.60;99.90;;;;;;5094557;28;20044;-72
2023/09/25 10:38:29;;;;;;;7.45;2.90;;;19.70;99.90;;;;;;5113195;28;20118;-72
2023/09/25 10:40:58;;;;;;;6.47;2.50;;;19.70;99.90;;;;;;5113283;28;20050;-70
2023/09/25 10:43:25;;;;;;;3.80;2.25;;;19.80;99.90;;;;;;5112606;28;20401;-72
2023/09/25 10:45:53;;;;;;;4.80;2.58;;;19.90;99.90;;;;;;5076973;28;20059;-70
2023/09/25 10:48:20;;;;;;;4.60;2.15;;;19.90;99.90;;;;;;5094193;28;20047;-70
2023/09/25 10:50:47;;;;;;;3.83;1.95;;;19.90;99.90;;;;;;5094321;28;20515;-70
2023/09/25 10:53:14;;;;;;;7.53;2.17;;;19.90;99.90;;;;;;5094475;28;20052;-72
2023/09/25 10:55:40;;;;;;;3.38;2.22;;;19.90;99.90;;;;;;5094747;28;20048;-71
2023/09/25 10:58:07;;;;;;;3.75;2.00;;;20.00;99.90;;;;;;5095245;28;20404;-71
2023/09/25 11:00:37;;;;;;;3.65;2.13;;;20.00;99.90;;;;;;5094234;28;20056;-71
2023/09/25 11:03:04;;;;;;;5.50;2.42;;;20.10;99.90;;;;;;5093926;28;20512;-70
2023/09/25 11:05:31;;;;;;;5.43;2.15;;;20.10;99.90;;;;;;5077145;28;20054;-71
2023/09/25 11:07:57;;;;;;;4.30;2.05;;;20.10;99.90;;;;;;5094180;28;20050;-72
2023/09/25 11:10:32;;;;;;;4.55;1.98;;;20.10;99.90;;;;;;5094092;28;20085;-72
2023/09/25 11:12:59;;;;;;;3.97;2.10;;;20.10;99.90;;;;;;5093941;28;20122;-71
2023/09/25 11:15:25;;;;;;;3.85;2.25;;;20.10;99.90;;;;;;5111783;28;20093;-72
2023/09/25 11:17:51;;;;;;;7.55;2.10;;;20.20;99.90;;;;;;5077665;28;20044;-72
2023/09/25 11:20:22;;;;;;;5.05;2.30;;;20.20;99.90;;;;;;5112048;28;20489;-70
2023/09/25 11:22:49;;;;;;;5.97;2.72;;;20.20;99.90;;;;;;5077653;28;20127;-74
2023/09/25 11:25:16;;;;;;;5.68;2.55;;;20.30;99.90;;;;;;5090312;28;20060;-73
2023/09/25 11:27:53;;;;;;;4.47;2.30;;;20.30;99.90;;;;;;5095191;28;20059;-73
2023/09/25 11:30:20;;;;;;;4.60;2.17;;;20.30;99.90;;;;;;5077589;28;20047;-72
2023/09/25 11:32:48;;;;;;;7.93;2.55;;;20.30;99.90;;;;;;5094787;28;20043;-73
2023/09/25 11:35:17;;;;;;;6.03;2.50;;;20.40;99.90;;;;;;5094312;28;20082;-73
2023/09/25 11:38:24;;;;;;;4.10;2.15;;;20.40;99.90;;;;;;5077790;28;20052;-73
2023/09/25 11:40:52;;;;;;;4.32;2.33;;;20.40;99.90;;;;;;5094747;28;20101;-71
2023/09/25 11:43:18;;;;;;;5.82;2.20;;;20.40;99.90;;;;;;5077277;28;20614;-73
2023/09/25 11:45:44;;;;;;;4.55;2.30;;;20.40;99.90;;;;;;5093901;28;20126;-73
2023/09/25 11:48:11;;;;;;;5.30;2.22;;;20.40;99.90;;;;;;5094284;28;20059;-73
2023/09/25 11:50:39;;;;;;;5.72;2.10;;;20.40;99.90;;;;;;5094078;28;20132;-72
2023/09/25 11:53:06;;;;;;;4.50;2.30;;;20.50;99.90;;;;;;5094330;28;20052;-72
2023/09/25 11:55:32;;;;;;;4.43;2.15;;;20.40;99.90;;;;;;5076889;28;20053;-73
2023/09/25 11:57:58;;;;;;;5.40;2.40;;;20.50;99.90;;;;;;5114354;28;20039;-72
2023/09/25 12:00:27;;;;;;;5.20;2.20;;;20.50;99.90;;;;;;5097148;28;20051;-73
2023/09/25 12:02:54;;;;;;;4.53;2.30;;;20.50;99.90;;;;;;5097733;28;20378;-73
2023/09/25 12:05:20;;;;;;;4.50;2.30;;;20.50;99.90;;;;;;5098132;28;20048;-75
2023/09/25 12:07:47;;;;;;;4.75;2.30;;;20.60;99.90;;;;;;5097841;28;20048;-74
2023/09/25 12:10:20;;;;;;;6.15;2.05;;;20.70;99.90;;;;;;5097979;28;20481;-76
2023/09/25 12:12:49;;;;;;;5.33;2.10;;;20.80;99.90;;;;;;5097946;28;20050;-73
2023/09/25 12:15:16;;;;;;;6.20;2.80;;;20.90;99.90;;;;;;5081132;28;20053;-74
2023/09/25 12:17:45;;;;;;;3.72;2.10;;;20.90;99.90;;;;;;5097148;28;20070;-72
2023/09/25 12:20:17;;;;;;;6.20;2.80;;;21.00;99.90;;;;;;5097427;28;20043;-71
2023/09/25 12:22:46;;;;;;;5.32;2.40;;;21.00;99.90;;;;;;5095659;28;20031;-72
2023/09/25 12:25:16;;;;;;;4.03;2.42;;;21.10;99.90;;;;;;5114951;28;20052;-71
2023/09/25 12:27:44;;;;;;;4.88;2.30;;;21.10;99.90;;;;;;5114788;28;20047;-71
2023/09/25 12:30:15;;;;;;;5.18;2.05;;;21.00;99.90;;;;;;5114490;28;20492;-71
2023/09/25 12:32:43;;;;;;;4.85;2.30;;;21.00;99.90;;;;;;5096515;28;20481;-71
2023/09/25 12:35:14;;;;;;;5.38;2.70;;;21.00;99.90;;;;;;5114333;28;20665;-71
2023/09/25 12:37:43;;;;;;;6.45;2.30;;;21.00;99.90;;;;;;5096216;28;20043;-71
2023/09/25 12:40:10;;;;;;;5.65;2.17;;;21.00;99.90;;;;;;5096318;28;20396;-71
2023/09/25 12:42:36;;;;;;;7.53;2.28;;;21.10;99.90;;;;;;5114412;28;20217;-72
2023/09/25 12:45:04;;;;;;;5.40;2.15;;;21.10;99.90;;;;;;5114698;28;20134;-71
2023/09/25 12:47:30;;;;;;;4.18;2.28;;;21.10;99.90;;;;;;5096257;28;20143;-72
2023/09/25 12:49:56;;;;;;;3.78;2.13;;;21.10;99.90;;;;;;5096535;28;20147;-71